sensor_id;sensor_type;location;lat;lon;timestamp;P1;durP1;ratioP1;P2;durP2;ratioP2
11665;SDS011;5889;51.350;6.708;2022-08-24T00:00:53;8.75;;;3.22;;
11665;SDS011;5889;51.350;6.708;2022-08-24T00:03:20;6.82;;;3.78;;
11665;SDS011;5889;51.350;6.708;2022-08-24T00:05:47;4.93;;;2.90;;
11665;SDS011;5889;51.350;6.708;2022-08-24T00:08:15;7.32;;;3.22;;
11665;SDS011;5889;51.350;6.708;2022-08-24T00:10:43;6.38;;;3.15;;
11665;SDS011;5889;51.350;6.708;2022-08-24T00:13:12;6.93;;;3.13;;
11665;SDS011;5889;51.350;6.708;2022-08-24T00:15:39;7.55;;;2.90;;
11665;SDS011;5889;51.350;6.708;2022-08-24T00:18:07;7.80;;;3.38;;
11665;SDS011;5889;51.350;6.708;2022-08-24T00:20:33;5.15;;;2.83;;
11665;SDS011;5889;51.350;6.708;2022-08-24T00:23:01;3.72;;;2.47;;
11665;SDS011;5889;51.350;6.708;2022-08-24T00:25:28;4.32;;;2.50;;
11665;SDS011;5889;51.350;6.708;2022-08-24T00:27:55;7.70;;;2.80;;
11665;SDS011;5889;51.350;6.708;2022-08-24T00:30:24;4.78;;;3.00;;
11665;SDS011;5889;51.350;6.708;2022-08-24T00:32:51;8.45;;;3.15;;
11665;SDS011;5889;51.350;6.708;2022-08-24T00:35:19;4.63;;;2.40;;
11665;SDS011;5889;51.350;6.708;2022-08-24T00:37:47;5.97;;;2.40;;
11665;SDS011;5889;51.350;6.708;2022-08-24T00:40:17;5.70;;;2.72;;
11665;SDS011;5889;51.350;6.708;2022-08-24T00:42:45;5.60;;;2.90;;
11665;SDS011;5889;51.350;6.708;2022-08-24T00:45:14;8.02;;;2.70;;
11665;SDS011;5889;51.350;6.708;2022-08-24T00:47:44;7.38;;;3.20;;
11665;SDS011;5889;51.350;6.708;2022-08-24T00:50:16;5.70;;;2.88;;
11665;SDS011;5889;51.350;6.708;2022-08-24T00:52:48;6.35;;;2.97;;
11665;SDS011;5889;51.350;6.708;2022-08-24T00:55:18;7.65;;;2.67;;
11665;SDS011;5889;51.350;6.708;2022-08-24T00:57:48;5.22;;;2.55;;
11665;SDS011;5889;51.350;6.708;2022-08-24T01:00:22;7.15;;;2.83;;
11665;SDS011;5889;51.350;6.708;2022-08-24T01:02:53;7.35;;;3.00;;
11665;SDS011;5889;51.350;6.708;2022-08-24T01:05:23;7.50;;;2.95;;
11665;SDS011;5889;51.350;6.708;2022-08-24T01:07:50;4.60;;;2.88;;
11665;SDS011;5889;51.350;6.708;2022-08-24T01:10:19;7.05;;;2.75;;
11665;SDS011;5889;51.350;6.708;2022-08-24T01:12:50;6.50;;;3.25;;
11665;SDS011;5889;51.350;6.708;2022-08-24T01:15:19;7.32;;;3.45;;
11665;SDS011;5889;51.350;6.708;2022-08-24T01:17:46;4.72;;;2.75;;
11665;SDS011;5889;51.350;6.708;2022-08-24T01:20:32;5.80;;;2.92;;
11665;SDS011;5889;51.350;6.708;2022-08-24T01:23:01;8.35;;;3.45;;
11665;SDS011;5889;51.350;6.708;2022-08-24T01:25:37;7.22;;;2.80;;
11665;SDS011;5889;51.350;6.708;2022-08-24T01:28:08;13.23;;;3.25;;
11665;SDS011;5889;51.350;6.708;2022-08-24T01:30:39;8.48;;;2.67;;
11665;SDS011;5889;51.350;6.708;2022-08-24T01:33:08;4.70;;;2.75;;
11665;SDS011;5889;51.350;6.708;2022-08-24T01:35:37;7.00;;;3.35;;
11665;SDS011;5889;51.350;6.708;2022-08-24T01:38:05;6.28;;;3.40;;
11665;SDS011;5889;51.350;6.708;2022-08-24T01:40:39;7.30;;;3.30;;
11665;SDS011;5889;51.350;6.708;2022-08-24T01:43:09;6.35;;;3.30;;
11665;SDS011;5889;51.350;6.708;2022-08-24T01:45:37;7.22;;;3.05;;
11665;SDS011;5889;51.350;6.708;2022-08-24T01:48:05;7.63;;;3.05;;
11665;SDS011;5889;51.350;6.708;2022-08-24T01:50:32;5.38;;;3.25;;
11665;SDS011;5889;51.350;6.708;2022-08-24T01:52:59;6.05;;;3.00;;
11665;SDS011;5889;51.350;6.708;2022-08-24T01:55:28;4.93;;;2.60;;
11665;SDS011;5889;51.350;6.708;2022-08-24T01:57:56;4.43;;;2.70;;
11665;SDS011;5889;51.350;6.708;2022-08-24T02:00:23;4.85;;;2.80;;
11665;SDS011;5889;51.350;6.708;2022-08-24T02:02:51;4.43;;;3.17;;
11665;SDS011;5889;51.350;6.708;2022-08-24T02:05:19;4.57;;;3.20;;
11665;SDS011;5889;51.350;6.708;2022-08-24T02:07:46;5.35;;;3.00;;
11665;SDS011;5889;51.350;6.708;2022-08-24T02:10:13;5.38;;;2.92;;
11665;SDS011;5889;51.350;6.708;2022-08-24T02:12:42;8.73;;;2.97;;
11665;SDS011;5889;51.350;6.708;2022-08-24T02:15:22;6.20;;;3.28;;
11665;SDS011;5889;51.350;6.708;2022-08-24T02:17:51;6.32;;;2.85;;
11665;SDS011;5889;51.350;6.708;2022-08-24T02:20:19;4.82;;;2.92;;
11665;SDS011;5889;51.350;6.708;2022-08-24T02:22:46;9.15;;;3.20;;
11665;SDS011;5889;51.350;6.708;2022-08-24T02:25:14;4.22;;;3.50;;
11665;SDS011;5889;51.350;6.708;2022-08-24T02:27:41;6.63;;;3.53;;
11665;SDS011;5889;51.350;6.708;2022-08-24T02:30:08;6.13;;;3.55;;
11665;SDS011;5889;51.350;6.708;2022-08-24T02:32:37;5.35;;;3.70;;
11665;SDS011;5889;51.350;6.708;2022-08-24T02:35:04;6.72;;;3.60;;
11665;SDS011;5889;51.350;6.708;2022-08-24T02:37:32;4.38;;;3.55;;
11665;SDS011;5889;51.350;6.708;2022-08-24T02:39:59;7.45;;;3.80;;
11665;SDS011;5889;51.350;6.708;2022-08-24T02:42:26;6.65;;;3.80;;
11665;SDS011;5889;51.350;6.708;2022-08-24T02:44:53;6.07;;;3.25;;
11665;SDS011;5889;51.350;6.708;2022-08-24T02:47:20;5.55;;;3.60;;
11665;SDS011;5889;51.350;6.708;2022-08-24T02:49:49;7.18;;;3.20;;
11665;SDS011;5889;51.350;6.708;2022-08-24T02:52:15;7.63;;;3.30;;
11665;SDS011;5889;51.350;6.708;2022-08-24T02:54:42;6.55;;;3.72;;
11665;SDS011;5889;51.350;6.708;2022-08-24T02:57:09;4.25;;;3.10;;
11665;SDS011;5889;51.350;6.708;2022-08-24T02:59:36;7.05;;;3.60;;
11665;SDS011;5889;51.350;6.708;2022-08-24T03:02:03;6.93;;;3.55;;
11665;SDS011;5889;51.350;6.708;2022-08-24T03:04:30;5.35;;;3.47;;
11665;SDS011;5889;51.350;6.708;2022-08-24T03:06:59;4.70;;;3.15;;
11665;SDS011;5889;51.350;6.708;2022-08-24T03:09:26;6.20;;;3.58;;
11665;SDS011;5889;51.350;6.708;2022-08-24T03:11:53;7.30;;;3.85;;
11665;SDS011;5889;51.350;6.708;2022-08-24T03:14:20;8.50;;;3.67;;
11665;SDS011;5889;51.350;6.708;2022-08-24T03:16:47;6.20;;;3.53;;
11665;SDS011;5889;51.350;6.708;2022-08-24T03:19:14;6.80;;;3.55;;
11665;SDS011;5889;51.350;6.708;2022-08-24T03:21:41;6.68;;;3.53;;
11665;SDS011;5889;51.350;6.708;2022-08-24T03:24:10;4.40;;;2.70;;
11665;SDS011;5889;51.350;6.708;2022-08-24T03:26:37;3.60;;;2.85;;
11665;SDS011;5889;51.350;6.708;2022-08-24T03:29:04;4.60;;;3.50;;
11665;SDS011;5889;51.350;6.708;2022-08-24T03:31:31;4.78;;;3.10;;
11665;SDS011;5889;51.350;6.708;2022-08-24T03:33:58;6.95;;;2.90;;
11665;SDS011;5889;51.350;6.708;2022-08-24T03:36:25;7.38;;;3.28;;
11665;SDS011;5889;51.350;6.708;2022-08-24T03:38:52;5.32;;;3.05;;
11665;SDS011;5889;51.350;6.708;2022-08-24T03:41:20;7.82;;;2.90;;
11665;SDS011;5889;51.350;6.708;2022-08-24T03:43:47;4.68;;;3.13;;
11665;SDS011;5889;51.350;6.708;2022-08-24T03:46:15;5.65;;;3.10;;
11665;SDS011;5889;51.350;6.708;2022-08-24T03:48:44;5.72;;;3.60;;
11665;SDS011;5889;51.350;6.708;2022-08-24T03:51:13;7.15;;;3.47;;
11665;SDS011;5889;51.350;6.708;2022-08-24T03:53:41;6.55;;;3.33;;
11665;SDS011;5889;51.350;6.708;2022-08-24T03:56:09;9.27;;;3.50;;
11665;SDS011;5889;51.350;6.708;2022-08-24T03:58:38;7.03;;;3.70;;
11665;SDS011;5889;51.350;6.708;2022-08-24T04:01:06;8.32;;;3.90;;
11665;SDS011;5889;51.350;6.708;2022-08-24T04:03:34;6.80;;;3.40;;
11665;SDS011;5889;51.350;6.708;2022-08-24T04:06:02;9.00;;;3.75;;
11665;SDS011;5889;51.350;6.708;2022-08-24T04:08:30;5.75;;;3.60;;
11665;SDS011;5889;51.350;6.708;2022-08-24T04:10:57;9.88;;;3.97;;
11665;SDS011;5889;51.350;6.708;2022-08-24T04:13:24;5.20;;;3.60;;
11665;SDS011;5889;51.350;6.708;2022-08-24T04:15:55;8.73;;;3.53;;
11665;SDS011;5889;51.350;6.708;2022-08-24T04:18:22;4.65;;;3.08;;
11665;SDS011;5889;51.350;6.708;2022-08-24T04:20:49;5.30;;;3.50;;
11665;SDS011;5889;51.350;6.708;2022-08-24T04:23:16;7.13;;;3.60;;
11665;SDS011;5889;51.350;6.708;2022-08-24T04:25:44;5.68;;;3.45;;
11665;SDS011;5889;51.350;6.708;2022-08-24T04:28:13;10.48;;;3.50;;
11665;SDS011;5889;51.350;6.708;2022-08-24T04:30:44;7.43;;;3.65;;
11665;SDS011;5889;51.350;6.708;2022-08-24T04:33:16;7.35;;;3.55;;
11665;SDS011;5889;51.350;6.708;2022-08-24T04:35:44;7.65;;;3.90;;
11665;SDS011;5889;51.350;6.708;2022-08-24T04:38:13;6.97;;;4.00;;
11665;SDS011;5889;51.350;6.708;2022-08-24T04:40:42;8.32;;;3.78;;
11665;SDS011;5889;51.350;6.708;2022-08-24T04:43:10;6.88;;;3.85;;
11665;SDS011;5889;51.350;6.708;2022-08-24T04:45:39;5.75;;;3.90;;
11665;SDS011;5889;51.350;6.708;2022-08-24T04:48:07;8.98;;;4.00;;
11665;SDS011;5889;51.350;6.708;2022-08-24T04:50:35;5.07;;;3.80;;
11665;SDS011;5889;51.350;6.708;2022-08-24T04:53:02;6.18;;;3.55;;
11665;SDS011;5889;51.350;6.708;2022-08-24T04:55:30;8.43;;;3.63;;
11665;SDS011;5889;51.350;6.708;2022-08-24T04:57:57;6.80;;;3.88;;
11665;SDS011;5889;51.350;6.708;2022-08-24T05:00:24;8.77;;;4.18;;
11665;SDS011;5889;51.350;6.708;2022-08-24T05:02:51;8.52;;;3.80;;
11665;SDS011;5889;51.350;6.708;2022-08-24T05:05:18;8.07;;;3.90;;
11665;SDS011;5889;51.350;6.708;2022-08-24T05:07:46;7.63;;;3.55;;
11665;SDS011;5889;51.350;6.708;2022-08-24T05:10:13;6.55;;;3.78;;
11665;SDS011;5889;51.350;6.708;2022-08-24T05:12:40;8.77;;;3.60;;
11665;SDS011;5889;51.350;6.708;2022-08-24T05:15:08;8.88;;;3.95;;
11665;SDS011;5889;51.350;6.708;2022-08-24T05:17:36;5.90;;;3.72;;
11665;SDS011;5889;51.350;6.708;2022-08-24T05:20:05;8.18;;;3.85;;
11665;SDS011;5889;51.350;6.708;2022-08-24T05:22:34;7.22;;;4.13;;
11665;SDS011;5889;51.350;6.708;2022-08-24T05:25:03;6.68;;;3.65;;
11665;SDS011;5889;51.350;6.708;2022-08-24T05:27:31;8.20;;;4.22;;
11665;SDS011;5889;51.350;6.708;2022-08-24T05:29:59;5.80;;;3.65;;
11665;SDS011;5889;51.350;6.708;2022-08-24T05:32:27;5.15;;;3.85;;
11665;SDS011;5889;51.350;6.708;2022-08-24T05:34:54;6.85;;;3.78;;
11665;SDS011;5889;51.350;6.708;2022-08-24T05:37:21;9.18;;;4.15;;
11665;SDS011;5889;51.350;6.708;2022-08-24T05:39:48;8.25;;;4.30;;
11665;SDS011;5889;51.350;6.708;2022-08-24T05:42:16;9.07;;;4.15;;
11665;SDS011;5889;51.350;6.708;2022-08-24T05:44:43;13.13;;;4.35;;
11665;SDS011;5889;51.350;6.708;2022-08-24T05:47:10;6.72;;;4.50;;
11665;SDS011;5889;51.350;6.708;2022-08-24T05:49:37;8.95;;;3.75;;
11665;SDS011;5889;51.350;6.708;2022-08-24T05:52:04;16.88;;;4.63;;
11665;SDS011;5889;51.350;6.708;2022-08-24T05:54:32;26.40;;;5.03;;
11665;SDS011;5889;51.350;6.708;2022-08-24T05:56:59;23.95;;;5.13;;
11665;SDS011;5889;51.350;6.708;2022-08-24T05:59:30;20.67;;;5.07;;
11665;SDS011;5889;51.350;6.708;2022-08-24T06:01:57;12.48;;;4.68;;
11665;SDS011;5889;51.350;6.708;2022-08-24T06:04:24;9.77;;;4.82;;
11665;SDS011;5889;51.350;6.708;2022-08-24T06:06:52;12.52;;;5.05;;
11665;SDS011;5889;51.350;6.708;2022-08-24T06:09:19;11.63;;;5.60;;
11665;SDS011;5889;51.350;6.708;2022-08-24T06:11:46;13.52;;;6.05;;
11665;SDS011;5889;51.350;6.708;2022-08-24T06:14:13;12.43;;;4.72;;
11665;SDS011;5889;51.350;6.708;2022-08-24T06:16:44;14.32;;;5.10;;
11665;SDS011;5889;51.350;6.708;2022-08-24T06:19:12;11.40;;;5.25;;
11665;SDS011;5889;51.350;6.708;2022-08-24T06:21:41;14.18;;;5.75;;
11665;SDS011;5889;51.350;6.708;2022-08-24T06:24:08;16.50;;;6.32;;
11665;SDS011;5889;51.350;6.708;2022-08-24T06:26:35;19.30;;;6.57;;
11665;SDS011;5889;51.350;6.708;2022-08-24T06:29:19;14.52;;;5.53;;
11665;SDS011;5889;51.350;6.708;2022-08-24T06:31:48;15.27;;;6.50;;
11665;SDS011;5889;51.350;6.708;2022-08-24T06:34:16;17.70;;;6.65;;
11665;SDS011;5889;51.350;6.708;2022-08-24T06:36:44;11.13;;;5.70;;
11665;SDS011;5889;51.350;6.708;2022-08-24T06:39:11;16.00;;;7.13;;
11665;SDS011;5889;51.350;6.708;2022-08-24T06:41:39;14.88;;;5.90;;
11665;SDS011;5889;51.350;6.708;2022-08-24T06:44:06;19.90;;;7.18;;
11665;SDS011;5889;51.350;6.708;2022-08-24T06:46:33;33.38;;;7.30;;
11665;SDS011;5889;51.350;6.708;2022-08-24T06:49:02;27.73;;;7.05;;
11665;SDS011;5889;51.350;6.708;2022-08-24T06:51:29;33.05;;;5.45;;
11665;SDS011;5889;51.350;6.708;2022-08-24T06:53:56;38.97;;;7.30;;
11665;SDS011;5889;51.350;6.708;2022-08-24T06:56:24;12.88;;;6.13;;
11665;SDS011;5889;51.350;6.708;2022-08-24T06:58:50;10.15;;;5.18;;
11665;SDS011;5889;51.350;6.708;2022-08-24T07:01:18;13.68;;;6.45;;
11665;SDS011;5889;51.350;6.708;2022-08-24T07:03:46;14.60;;;6.25;;
11665;SDS011;5889;51.350;6.708;2022-08-24T07:06:15;17.35;;;6.30;;
11665;SDS011;5889;51.350;6.708;2022-08-24T07:08:43;12.50;;;5.63;;
11665;SDS011;5889;51.350;6.708;2022-08-24T07:11:10;16.80;;;5.65;;
11665;SDS011;5889;51.350;6.708;2022-08-24T07:13:39;9.45;;;5.07;;
11665;SDS011;5889;51.350;6.708;2022-08-24T07:16:06;10.75;;;5.15;;
11665;SDS011;5889;51.350;6.708;2022-08-24T07:18:34;9.70;;;5.35;;
11665;SDS011;5889;51.350;6.708;2022-08-24T07:21:01;17.98;;;5.00;;
11665;SDS011;5889;51.350;6.708;2022-08-24T07:23:30;8.90;;;4.18;;
11665;SDS011;5889;51.350;6.708;2022-08-24T07:26:03;10.10;;;4.30;;
11665;SDS011;5889;51.350;6.708;2022-08-24T07:28:33;5.60;;;3.95;;
11665;SDS011;5889;51.350;6.708;2022-08-24T07:31:01;8.00;;;4.57;;
11665;SDS011;5889;51.350;6.708;2022-08-24T07:33:28;6.50;;;3.40;;
11665;SDS011;5889;51.350;6.708;2022-08-24T07:35:55;6.45;;;3.83;;
11665;SDS011;5889;51.350;6.708;2022-08-24T07:38:22;7.32;;;3.30;;
11665;SDS011;5889;51.350;6.708;2022-08-24T07:40:50;4.05;;;3.25;;
11665;SDS011;5889;51.350;6.708;2022-08-24T07:43:18;5.93;;;3.60;;
11665;SDS011;5889;51.350;6.708;2022-08-24T07:45:46;7.53;;;3.45;;
11665;SDS011;5889;51.350;6.708;2022-08-24T07:48:13;6.43;;;3.72;;
11665;SDS011;5889;51.350;6.708;2022-08-24T07:50:40;11.18;;;3.40;;
11665;SDS011;5889;51.350;6.708;2022-08-24T07:53:07;7.20;;;3.72;;
11665;SDS011;5889;51.350;6.708;2022-08-24T07:55:34;7.88;;;3.42;;
11665;SDS011;5889;51.350;6.708;2022-08-24T07:58:02;13.57;;;4.07;;
11665;SDS011;5889;51.350;6.708;2022-08-24T08:00:29;6.22;;;3.58;;
11665;SDS011;5889;51.350;6.708;2022-08-24T08:02:56;5.95;;;3.08;;
11665;SDS011;5889;51.350;6.708;2022-08-24T08:05:23;6.72;;;3.30;;
11665;SDS011;5889;51.350;6.708;2022-08-24T08:07:50;6.13;;;3.78;;
11665;SDS011;5889;51.350;6.708;2022-08-24T08:10:18;7.50;;;3.13;;
11665;SDS011;5889;51.350;6.708;2022-08-24T08:12:47;6.68;;;3.22;;
11665;SDS011;5889;51.350;6.708;2022-08-24T08:15:15;10.82;;;3.30;;
11665;SDS011;5889;51.350;6.708;2022-08-24T08:17:43;4.32;;;3.60;;
11665;SDS011;5889;51.350;6.708;2022-08-24T08:20:11;6.97;;;3.45;;
11665;SDS011;5889;51.350;6.708;2022-08-24T08:22:38;6.68;;;3.60;;
11665;SDS011;5889;51.350;6.708;2022-08-24T08:25:22;5.47;;;3.17;;
11665;SDS011;5889;51.350;6.708;2022-08-24T08:27:49;6.78;;;3.50;;
11665;SDS011;5889;51.350;6.708;2022-08-24T08:30:17;10.70;;;3.40;;
11665;SDS011;5889;51.350;6.708;2022-08-24T08:32:45;5.10;;;3.25;;
11665;SDS011;5889;51.350;6.708;2022-08-24T08:35:12;6.75;;;3.88;;
11665;SDS011;5889;51.350;6.708;2022-08-24T08:37:39;5.18;;;3.10;;
11665;SDS011;5889;51.350;6.708;2022-08-24T08:40:07;4.20;;;3.20;;
11665;SDS011;5889;51.350;6.708;2022-08-24T08:42:59;6.32;;;3.63;;
11665;SDS011;5889;51.350;6.708;2022-08-24T08:45:32;7.07;;;3.40;;
11665;SDS011;5889;51.350;6.708;2022-08-24T08:54:11;6.75;;;3.35;;
11665;SDS011;5889;51.350;6.708;2022-08-24T08:56:49;4.57;;;3.08;;
11665;SDS011;5889;51.350;6.708;2022-08-24T08:59:32;6.13;;;3.08;;
11665;SDS011;5889;51.350;6.708;2022-08-24T09:02:16;7.53;;;3.35;;
11665;SDS011;5889;51.350;6.708;2022-08-24T09:04:56;7.53;;;3.40;;
11665;SDS011;5889;51.350;6.708;2022-08-24T09:07:44;5.82;;;3.65;;
11665;SDS011;5889;51.350;6.708;2022-08-24T09:10:30;6.20;;;3.45;;
11665;SDS011;5889;51.350;6.708;2022-08-24T09:13:16;4.05;;;2.75;;
11665;SDS011;5889;51.350;6.708;2022-08-24T09:15:59;7.05;;;3.10;;
11665;SDS011;5889;51.350;6.708;2022-08-24T09:18:48;7.75;;;2.90;;
11665;SDS011;5889;51.350;6.708;2022-08-24T09:21:30;5.05;;;2.83;;
11665;SDS011;5889;51.350;6.708;2022-08-24T09:24:19;4.68;;;3.15;;
11665;SDS011;5889;51.350;6.708;2022-08-24T09:27:07;6.45;;;2.60;;
11665;SDS011;5889;51.350;6.708;2022-08-24T09:29:45;5.20;;;2.92;;
11665;SDS011;5889;51.350;6.708;2022-08-24T09:32:27;7.15;;;2.88;;
11665;SDS011;5889;51.350;6.708;2022-08-24T09:35:03;4.38;;;2.75;;
11665;SDS011;5889;51.350;6.708;2022-08-24T09:37:34;7.00;;;2.40;;
11665;SDS011;5889;51.350;6.708;2022-08-24T09:40:23;7.03;;;2.40;;
11665;SDS011;5889;51.350;6.708;2022-08-24T09:43:14;4.95;;;2.85;;
11665;SDS011;5889;51.350;6.708;2022-08-24T09:46:28;3.60;;;2.60;;
11665;SDS011;5889;51.350;6.708;2022-08-24T09:49:26;10.55;;;3.05;;
11665;SDS011;5889;51.350;6.708;2022-08-24T09:52:26;4.38;;;2.47;;
11665;SDS011;5889;51.350;6.708;2022-08-24T09:55:08;7.22;;;2.60;;
11665;SDS011;5889;51.350;6.708;2022-08-24T09:57:57;9.05;;;3.20;;
11665;SDS011;5889;51.350;6.708;2022-08-24T10:00:36;6.63;;;2.38;;
11665;SDS011;5889;51.350;6.708;2022-08-24T10:03:13;5.18;;;2.95;;
11665;SDS011;5889;51.350;6.708;2022-08-24T10:05:55;4.82;;;2.40;;
11665;SDS011;5889;51.350;6.708;2022-08-24T10:08:47;4.18;;;2.65;;
11665;SDS011;5889;51.350;6.708;2022-08-24T10:11:36;5.95;;;3.10;;
11665;SDS011;5889;51.350;6.708;2022-08-24T10:14:12;5.65;;;2.70;;
11665;SDS011;5889;51.350;6.708;2022-08-24T10:16:46;6.10;;;2.80;;
11665;SDS011;5889;51.350;6.708;2022-08-24T10:19:29;5.57;;;2.42;;
11665;SDS011;5889;51.350;6.708;2022-08-24T10:22:07;7.45;;;2.58;;
11665;SDS011;5889;51.350;6.708;2022-08-24T10:24:48;5.57;;;2.30;;
11665;SDS011;5889;51.350;6.708;2022-08-24T10:27:44;3.78;;;2.22;;
11665;SDS011;5889;51.350;6.708;2022-08-24T10:30:20;5.88;;;2.72;;
11665;SDS011;5889;51.350;6.708;2022-08-24T10:33:05;3.97;;;2.30;;
11665;SDS011;5889;51.350;6.708;2022-08-24T10:35:45;2.38;;;2.08;;
11665;SDS011;5889;51.350;6.708;2022-08-24T10:38:30;4.25;;;1.98;;
11665;SDS011;5889;51.350;6.708;2022-08-24T10:47:10;4.15;;;2.20;;
11665;SDS011;5889;51.350;6.708;2022-08-24T10:49:58;5.10;;;2.30;;
11665;SDS011;5889;51.350;6.708;2022-08-24T10:52:52;6.95;;;2.38;;
11665;SDS011;5889;51.350;6.708;2022-08-24T10:55:31;5.55;;;2.67;;
11665;SDS011;5889;51.350;6.708;2022-08-24T10:58:12;4.78;;;2.33;;
11665;SDS011;5889;51.350;6.708;2022-08-24T11:01:14;4.50;;;1.92;;
11665;SDS011;5889;51.350;6.708;2022-08-24T11:03:48;4.30;;;2.40;;
11665;SDS011;5889;51.350;6.708;2022-08-24T11:06:18;3.92;;;2.10;;
11665;SDS011;5889;51.350;6.708;2022-08-24T11:08:50;3.78;;;2.25;;
11665;SDS011;5889;51.350;6.708;2022-08-24T11:11:23;5.95;;;2.35;;
11665;SDS011;5889;51.350;6.708;2022-08-24T11:13:55;5.07;;;2.38;;
11665;SDS011;5889;51.350;6.708;2022-08-24T11:16:26;4.05;;;2.30;;
11665;SDS011;5889;51.350;6.708;2022-08-24T11:18:56;6.82;;;2.45;;
11665;SDS011;5889;51.350;6.708;2022-08-24T11:21:32;6.22;;;2.30;;
11665;SDS011;5889;51.350;6.708;2022-08-24T11:24:03;4.35;;;2.20;;
11665;SDS011;5889;51.350;6.708;2022-08-24T11:26:34;4.25;;;2.42;;
11665;SDS011;5889;51.350;6.708;2022-08-24T11:29:18;3.72;;;2.30;;
11665;SDS011;5889;51.350;6.708;2022-08-24T11:31:47;3.75;;;2.22;;
11665;SDS011;5889;51.350;6.708;2022-08-24T11:34:18;4.22;;;2.40;;
11665;SDS011;5889;51.350;6.708;2022-08-24T11:36:55;5.60;;;2.20;;
11665;SDS011;5889;51.350;6.708;2022-08-24T11:39:23;4.03;;;2.33;;
11665;SDS011;5889;51.350;6.708;2022-08-24T11:41:55;3.30;;;2.45;;
11665;SDS011;5889;51.350;6.708;2022-08-24T11:44:35;3.72;;;2.30;;
11665;SDS011;5889;51.350;6.708;2022-08-24T11:47:08;3.30;;;2.30;;
11665;SDS011;5889;51.350;6.708;2022-08-24T11:49:59;3.55;;;2.30;;
11665;SDS011;5889;51.350;6.708;2022-08-24T11:52:36;5.25;;;2.42;;
11665;SDS011;5889;51.350;6.708;2022-08-24T11:55:12;5.25;;;2.30;;
11665;SDS011;5889;51.350;6.708;2022-08-24T11:57:43;4.60;;;2.50;;
11665;SDS011;5889;51.350;6.708;2022-08-24T12:00:18;4.30;;;2.05;;
11665;SDS011;5889;51.350;6.708;2022-08-24T12:02:49;6.70;;;2.33;;
11665;SDS011;5889;51.350;6.708;2022-08-24T12:05:24;2.55;;;2.05;;
11665;SDS011;5889;51.350;6.708;2022-08-24T12:07:59;2.58;;;2.15;;
11665;SDS011;5889;51.350;6.708;2022-08-24T12:10:37;3.45;;;2.10;;
11665;SDS011;5889;51.350;6.708;2022-08-24T12:13:11;3.95;;;2.10;;
11665;SDS011;5889;51.350;6.708;2022-08-24T12:15:55;4.95;;;2.10;;
11665;SDS011;5889;51.350;6.708;2022-08-24T12:18:29;6.53;;;2.40;;
11665;SDS011;5889;51.350;6.708;2022-08-24T12:21:10;4.57;;;2.00;;
11665;SDS011;5889;51.350;6.708;2022-08-24T12:23:39;3.97;;;2.00;;
11665;SDS011;5889;51.350;6.708;2022-08-24T12:26:10;3.83;;;2.40;;
11665;SDS011;5889;51.350;6.708;2022-08-24T12:28:43;3.53;;;1.77;;
11665;SDS011;5889;51.350;6.708;2022-08-24T12:31:16;3.95;;;1.95;;
11665;SDS011;5889;51.350;6.708;2022-08-24T12:33:47;2.22;;;1.52;;
11665;SDS011;5889;51.350;6.708;2022-08-24T12:36:20;3.58;;;1.60;;
11665;SDS011;5889;51.350;6.708;2022-08-24T12:38:56;11.30;;;1.52;;
11665;SDS011;5889;51.350;6.708;2022-08-24T12:41:30;4.47;;;1.67;;
11665;SDS011;5889;51.350;6.708;2022-08-24T12:44:01;2.83;;;1.60;;
11665;SDS011;5889;51.350;6.708;2022-08-24T12:46:35;4.13;;;2.10;;
11665;SDS011;5889;51.350;6.708;2022-08-24T12:49:04;2.22;;;1.98;;
11665;SDS011;5889;51.350;6.708;2022-08-24T12:54:34;2.78;;;1.63;;
11665;SDS011;5889;51.350;6.708;2022-08-24T13:00:06;5.50;;;2.03;;
11665;SDS011;5889;51.350;6.708;2022-08-24T13:02:56;2.10;;;1.80;;
11665;SDS011;5889;51.350;6.708;2022-08-24T13:05:35;4.13;;;2.20;;
11665;SDS011;5889;51.350;6.708;2022-08-24T13:08:09;4.10;;;2.10;;
11665;SDS011;5889;51.350;6.708;2022-08-24T13:10:41;2.25;;;2.05;;
11665;SDS011;5889;51.350;6.708;2022-08-24T13:13:12;5.70;;;2.10;;
11665;SDS011;5889;51.350;6.708;2022-08-24T13:15:49;4.45;;;2.10;;
11665;SDS011;5889;51.350;6.708;2022-08-24T13:21:16;6.40;;;2.08;;
11665;SDS011;5889;51.350;6.708;2022-08-24T13:30:21;5.88;;;2.40;;
11665;SDS011;5889;51.350;6.708;2022-08-24T13:33:03;5.90;;;2.22;;
11665;SDS011;5889;51.350;6.708;2022-08-24T13:35:52;4.07;;;2.10;;
11665;SDS011;5889;51.350;6.708;2022-08-24T13:38:40;2.30;;;1.90;;
11665;SDS011;5889;51.350;6.708;2022-08-24T13:41:17;6.43;;;2.25;;
11665;SDS011;5889;51.350;6.708;2022-08-24T13:43:57;6.57;;;2.67;;
11665;SDS011;5889;51.350;6.708;2022-08-24T13:46:38;3.53;;;2.55;;
11665;SDS011;5889;51.350;6.708;2022-08-24T13:49:17;1.92;;;1.73;;
11665;SDS011;5889;51.350;6.708;2022-08-24T13:52:02;3.88;;;2.28;;
11665;SDS011;5889;51.350;6.708;2022-08-24T13:54:40;5.28;;;2.30;;
11665;SDS011;5889;51.350;6.708;2022-08-24T14:00:14;4.22;;;2.38;;
11665;SDS011;5889;51.350;6.708;2022-08-24T14:03:00;3.95;;;2.17;;
11665;SDS011;5889;51.350;6.708;2022-08-24T14:05:46;6.85;;;2.17;;
11665;SDS011;5889;51.350;6.708;2022-08-24T14:08:26;3.95;;;1.92;;
11665;SDS011;5889;51.350;6.708;2022-08-24T14:11:06;4.97;;;2.20;;
11665;SDS011;5889;51.350;6.708;2022-08-24T14:13:47;4.20;;;2.20;;
11665;SDS011;5889;51.350;6.708;2022-08-24T14:16:28;6.55;;;2.28;;
11665;SDS011;5889;51.350;6.708;2022-08-24T14:19:25;3.13;;;2.20;;
11665;SDS011;5889;51.350;6.708;2022-08-24T14:22:05;3.90;;;2.47;;
11665;SDS011;5889;51.350;6.708;2022-08-24T14:24:47;4.55;;;2.17;;
11665;SDS011;5889;51.350;6.708;2022-08-24T14:27:35;4.13;;;2.17;;
11665;SDS011;5889;51.350;6.708;2022-08-24T14:33:17;2.45;;;2.20;;
11665;SDS011;5889;51.350;6.708;2022-08-24T14:38:45;3.50;;;2.03;;
11665;SDS011;5889;51.350;6.708;2022-08-24T14:41:33;3.95;;;2.10;;
11665;SDS011;5889;51.350;6.708;2022-08-24T14:47:25;3.72;;;2.30;;
11665;SDS011;5889;51.350;6.708;2022-08-24T14:50:05;3.42;;;1.90;;
11665;SDS011;5889;51.350;6.708;2022-08-24T14:52:46;4.80;;;2.30;;
11665;SDS011;5889;51.350;6.708;2022-08-24T14:55:33;4.88;;;2.30;;
11665;SDS011;5889;51.350;6.708;2022-08-24T14:58:16;4.10;;;2.03;;
11665;SDS011;5889;51.350;6.708;2022-08-24T15:04:01;2.60;;;2.00;;
11665;SDS011;5889;51.350;6.708;2022-08-24T15:06:41;6.18;;;2.45;;
11665;SDS011;5889;51.350;6.708;2022-08-24T15:09:16;6.50;;;2.42;;
11665;SDS011;5889;51.350;6.708;2022-08-24T15:11:46;3.03;;;1.95;;
11665;SDS011;5889;51.350;6.708;2022-08-24T15:14:21;2.90;;;2.13;;
11665;SDS011;5889;51.350;6.708;2022-08-24T15:16:51;3.63;;;2.13;;
11665;SDS011;5889;51.350;6.708;2022-08-24T15:19:28;3.80;;;2.17;;
11665;SDS011;5889;51.350;6.708;2022-08-24T15:22:01;4.03;;;2.22;;
11665;SDS011;5889;51.350;6.708;2022-08-24T15:24:34;6.25;;;2.05;;
11665;SDS011;5889;51.350;6.708;2022-08-24T15:27:10;2.83;;;1.95;;
11665;SDS011;5889;51.350;6.708;2022-08-24T15:29:47;3.63;;;1.90;;
11665;SDS011;5889;51.350;6.708;2022-08-24T15:32:18;3.03;;;2.22;;
11665;SDS011;5889;51.350;6.708;2022-08-24T15:34:46;3.53;;;2.28;;
11665;SDS011;5889;51.350;6.708;2022-08-24T15:37:24;2.85;;;1.90;;
11665;SDS011;5889;51.350;6.708;2022-08-24T15:39:53;2.97;;;2.00;;
11665;SDS011;5889;51.350;6.708;2022-08-24T15:42:20;3.05;;;2.03;;
11665;SDS011;5889;51.350;6.708;2022-08-24T15:44:48;5.65;;;2.17;;
11665;SDS011;5889;51.350;6.708;2022-08-24T15:47:24;5.28;;;2.05;;
11665;SDS011;5889;51.350;6.708;2022-08-24T15:49:54;2.95;;;1.95;;
11665;SDS011;5889;51.350;6.708;2022-08-24T15:58:04;2.97;;;2.10;;
11665;SDS011;5889;51.350;6.708;2022-08-24T16:00:41;5.63;;;1.95;;
11665;SDS011;5889;51.350;6.708;2022-08-24T16:03:26;3.08;;;1.85;;
11665;SDS011;5889;51.350;6.708;2022-08-24T16:06:16;3.80;;;1.70;;
11665;SDS011;5889;51.350;6.708;2022-08-24T16:08:56;4.25;;;2.08;;
11665;SDS011;5889;51.350;6.708;2022-08-24T16:11:27;3.75;;;2.13;;
11665;SDS011;5889;51.350;6.708;2022-08-24T16:13:59;3.35;;;2.10;;
11665;SDS011;5889;51.350;6.708;2022-08-24T16:16:32;2.83;;;2.30;;
11665;SDS011;5889;51.350;6.708;2022-08-24T16:19:02;2.55;;;2.13;;
11665;SDS011;5889;51.350;6.708;2022-08-24T16:21:31;3.78;;;2.35;;